Indianapolis, Indiana
Traffic Map
Current Weather Conditions
Indianapolis, Indiana
Broken Clouds
Broken Clouds
83°
Feels Like: 84°
Wind Chill: 83° Ceiling: 12000
Heat Index: 84° Visibility: 10mi
Dew Point: 64° Wind: 6mph
Humidity: 53% Direction: 350° (N)
Pressure: 29.94in Gusts: 0mph
Raw Report DataKIND 280054Z 35005KT 10SM BKN120 BKN250 28/18 A2994 RMK AO2 SLP130 T02830178
Traffic Incident Summary
Active as of:
Severity:
Category:
InformationThere was an issue retrieving the traffic information for this location. Please try a different location or try again shortly.
Advertisements
Track Severe Weather on mobile